createdAt,value
2019-04-03T00:01:12.273Z,9.80
2019-04-03T00:03:42.274Z,9.80
2019-04-03T00:06:12.257Z,9.80
2019-04-03T00:08:42.380Z,9.80
2019-04-03T00:11:12.562Z,9.80
2019-04-03T00:13:42.663Z,9.70
2019-04-03T00:16:15.342Z,9.70
2019-04-03T00:18:46.781Z,9.70
2019-04-03T00:21:15.954Z,9.70
2019-04-03T00:23:46.005Z,9.70
2019-04-03T00:26:15.875Z,9.60
2019-04-03T00:28:46.001Z,9.60
2019-04-03T00:31:15.844Z,9.60
2019-04-03T00:33:46.023Z,9.50
2019-04-03T00:36:15.937Z,9.50
2019-04-03T00:38:45.970Z,9.50
2019-04-03T00:41:15.829Z,9.60
2019-04-03T00:43:45.889Z,9.50
2019-04-03T00:46:15.801Z,9.40
2019-04-03T00:48:45.717Z,9.50
2019-04-03T00:51:15.632Z,9.50
2019-04-03T00:53:45.679Z,9.50
2019-04-03T00:56:15.780Z,9.50
2019-04-03T00:58:46.185Z,9.50
2019-04-03T01:01:16.318Z,9.50
2019-04-03T01:03:46.441Z,9.40
2019-04-03T01:06:16.476Z,9.40
2019-04-03T01:08:46.691Z,9.40
2019-04-03T01:11:16.459Z,9.30
2019-04-03T01:13:46.718Z,9.20
2019-04-03T01:16:16.611Z,9.20
2019-04-03T01:18:46.542Z,9.30
2019-04-03T01:21:16.524Z,9.30
2019-04-03T01:23:46.816Z,9.30
2019-04-03T01:26:16.756Z,9.30
2019-04-03T01:28:46.665Z,9.40
2019-04-03T01:31:16.716Z,9.40
2019-04-03T01:33:47.186Z,9.40
2019-04-03T01:36:17.572Z,9.30
2019-04-03T01:38:49.758Z,9.20
2019-04-03T01:41:21.278Z,9.10
2019-04-03T01:43:53.379Z,9.10
2019-04-03T01:46:22.868Z,9.10
2019-04-03T01:48:52.968Z,9.00
2019-04-03T01:51:22.936Z,9.10
2019-04-03T01:53:53.043Z,9.10
2019-04-03T01:56:22.999Z,9.10
2019-04-03T01:58:53.127Z,9.10
2019-04-03T02:01:23.376Z,9.00
2019-04-03T02:03:53.359Z,9.00
2019-04-03T02:06:23.557Z,9.00
2019-04-03T02:08:53.645Z,9.00
2019-04-03T02:11:23.400Z,9.00
2019-04-03T02:13:53.557Z,9.00
2019-04-03T02:16:23.806Z,8.90
2019-04-03T02:18:55.379Z,8.90
2019-04-03T02:21:27.294Z,8.80
2019-04-03T02:23:57.749Z,8.80
2019-04-03T02:26:27.725Z,8.80
2019-04-03T02:28:57.558Z,8.70
2019-04-03T02:31:27.783Z,8.70
2019-04-03T02:34:01.284Z,8.70
2019-04-03T02:36:29.451Z,8.70
2019-04-03T02:38:59.396Z,8.70
2019-04-03T02:41:29.648Z,8.80
2019-04-03T02:43:59.702Z,8.70
2019-04-03T02:46:29.839Z,8.70
2019-04-03T02:48:59.940Z,8.70
2019-04-03T02:51:30.223Z,8.70
2019-04-03T02:54:02.479Z,8.70
2019-04-03T02:56:32.129Z,8.70
2019-04-03T02:59:02.430Z,8.70
2019-04-03T03:01:32.630Z,8.70
2019-04-03T03:04:03.100Z,8.70
2019-04-03T03:06:37.119Z,8.70
2019-04-03T03:09:07.851Z,8.60
2019-04-03T03:11:38.317Z,8.50
2019-04-03T03:14:09.585Z,8.50
2019-04-03T03:16:39.775Z,8.50
2019-04-03T03:19:09.958Z,8.40
2019-04-03T03:21:44.055Z,8.30
2019-04-03T03:24:12.273Z,8.30
2019-04-03T03:26:42.579Z,8.30
2019-04-03T03:29:17.575Z,8.30
2019-04-03T03:32:05.312Z,8.30
2019-04-03T03:34:43.667Z,8.30
2019-04-03T03:36:57.970Z,8.30
2019-04-03T03:39:23.193Z,8.40
2019-04-03T03:41:56.221Z,8.40
2019-04-03T03:44:26.969Z,8.40
2019-04-03T03:47:01.022Z,8.30
2019-04-03T03:49:30.431Z,8.30
2019-04-03T03:52:04.141Z,8.20
2019-04-03T03:54:33.691Z,8.20
2019-04-03T03:57:05.265Z,8.20
2019-04-03T03:59:37.271Z,8.30
2019-04-03T04:02:07.379Z,8.30
2019-04-03T04:04:37.782Z,8.40
2019-04-03T04:07:08.042Z,8.40
2019-04-03T04:09:38.113Z,8.40
2019-04-03T04:12:08.705Z,8.40
2019-04-03T04:14:39.245Z,8.40
2019-04-03T04:17:15.116Z,8.30
2019-04-03T04:19:41.068Z,8.30
2019-04-03T04:22:11.299Z,8.20
2019-04-03T04:24:42.747Z,8.20
2019-04-03T04:27:13.279Z,8.10
2019-04-03T04:29:43.490Z,8.10
2019-04-03T04:32:14.918Z,8.10
2019-04-03T04:34:45.877Z,8.00
2019-04-03T04:37:16.381Z,8.00
2019-04-03T04:39:46.407Z,8.10
2019-04-03T04:42:16.264Z,8.00
2019-04-03T04:44:46.550Z,8.00
2019-04-03T04:47:16.706Z,8.00
2019-04-03T04:49:46.856Z,8.00
2019-04-03T04:52:16.898Z,8.10
2019-04-03T04:54:47.196Z,8.10
2019-04-03T04:57:17.060Z,8.10
2019-04-03T04:59:47.149Z,7.90
2019-04-03T05:02:17.874Z,7.90
2019-04-03T05:04:48.827Z,7.70
2019-04-03T05:07:18.820Z,7.80
2019-04-03T05:09:48.955Z,7.80
2019-04-03T05:12:19.010Z,7.90
2019-04-03T05:14:49.495Z,7.90
2019-04-03T05:17:20.153Z,7.90
2019-04-03T05:19:50.606Z,7.90
2019-04-03T05:22:23.224Z,7.90
2019-04-03T05:24:52.548Z,7.90
2019-04-03T05:27:22.753Z,7.90
2019-04-03T05:29:52.898Z,7.90
2019-04-03T05:32:22.972Z,7.90
2019-04-03T05:34:52.969Z,7.80
2019-04-03T05:37:23.547Z,7.80
2019-04-03T05:39:55.679Z,7.90
2019-04-03T05:42:26.947Z,7.90
2019-04-03T05:44:57.691Z,7.90
2019-04-03T05:47:28.630Z,8.00
2019-04-03T05:49:58.564Z,8.00
2019-04-03T05:52:28.666Z,8.00
2019-04-03T05:54:58.694Z,8.00
2019-04-03T05:57:29.599Z,8.10
2019-04-03T06:00:01.849Z,8.10
2019-04-03T06:02:31.194Z,8.10
2019-04-03T06:05:01.474Z,8.10
2019-04-03T06:07:31.655Z,8.10
2019-04-03T06:10:01.639Z,8.10
2019-04-03T06:12:32.020Z,8.10
2019-04-03T06:15:02.161Z,8.20
2019-04-03T06:17:32.104Z,8.20
2019-04-03T06:20:02.550Z,8.30
2019-04-03T06:22:32.541Z,8.40
2019-04-03T06:25:02.665Z,8.40
2019-04-03T06:27:33.130Z,8.50
2019-04-03T06:30:03.123Z,8.60
2019-04-03T06:32:33.233Z,8.60
2019-04-03T06:35:03.392Z,8.70
2019-04-03T06:37:33.493Z,8.70
2019-04-03T06:40:03.905Z,8.80
2019-04-03T06:42:34.384Z,8.80
2019-04-03T06:45:04.891Z,8.90
2019-04-03T06:47:34.760Z,9.00
2019-04-03T06:50:05.495Z,9.00
2019-04-03T06:52:35.510Z,9.10
2019-04-03T06:55:05.474Z,9.10
2019-04-03T06:57:35.592Z,9.10
2019-04-03T07:00:05.897Z,9.10
2019-04-03T07:02:35.906Z,9.20
2019-04-03T07:05:06.336Z,9.30
2019-04-03T07:07:36.247Z,9.30
2019-04-03T07:10:08.848Z,9.40
2019-04-03T07:12:38.334Z,9.50
2019-04-03T07:15:08.812Z,9.60
2019-04-03T07:17:39.279Z,9.60
2019-04-03T07:20:14.175Z,9.70
2019-04-03T07:22:42.027Z,9.80
2019-04-03T07:25:12.485Z,9.80
2019-04-03T07:27:42.842Z,9.90
2019-04-03T07:30:13.119Z,9.90
2019-04-03T07:32:42.918Z,10.00
2019-04-03T07:35:13.301Z,10.00
2019-04-03T07:37:43.400Z,10.10
2019-04-03T07:40:13.830Z,10.10
2019-04-03T07:42:43.860Z,10.20
2019-04-03T07:45:15.004Z,10.30
2019-04-03T07:47:45.102Z,10.30
2019-04-03T07:50:15.750Z,10.40
2019-04-03T07:52:47.787Z,10.50
2019-04-03T07:55:17.393Z,10.60
2019-04-03T07:57:47.655Z,10.60
2019-04-03T08:00:18.045Z,10.70
2019-04-03T08:02:49.931Z,10.80
2019-04-03T08:05:19.970Z,10.90
2019-04-03T08:07:49.918Z,11.00
2019-04-03T08:10:19.950Z,11.10
2019-04-03T08:12:50.079Z,11.10
2019-04-03T08:15:19.765Z,11.20
2019-04-03T08:17:50.879Z,11.20
2019-04-03T08:20:21.079Z,11.30
2019-04-03T08:22:51.175Z,11.30
2019-04-03T08:25:21.112Z,11.40
2019-04-03T08:27:54.331Z,11.40
2019-04-03T08:30:24.292Z,11.40
2019-04-03T08:32:54.316Z,11.50
2019-04-03T08:35:24.701Z,11.50
2019-04-03T08:37:54.968Z,11.50
2019-04-03T08:40:25.163Z,11.60
2019-04-03T08:42:55.480Z,11.60
2019-04-03T08:45:25.490Z,11.80
2019-04-03T08:47:55.395Z,11.90
2019-04-03T08:50:26.780Z,12.00
2019-04-03T08:52:57.933Z,12.10
2019-04-03T08:55:27.948Z,12.20
2019-04-03T08:57:57.998Z,12.20
2019-04-03T09:00:31.395Z,12.30
2019-04-03T09:03:00.102Z,12.40
2019-04-03T09:05:30.659Z,12.50
2019-04-03T09:08:00.817Z,12.60
2019-04-03T09:10:32.695Z,12.70
2019-04-03T09:13:15.358Z,12.80
2019-04-03T09:15:34.000Z,12.90
2019-04-03T09:18:06.421Z,13.00
2019-04-03T09:20:36.073Z,13.10
2019-04-03T09:23:06.005Z,13.30
2019-04-03T09:25:36.123Z,13.50
2019-04-03T09:28:06.388Z,13.60
2019-04-03T09:30:36.978Z,13.80
2019-04-03T09:33:07.282Z,14.00
2019-04-03T09:35:37.636Z,14.10
2019-04-03T09:38:09.507Z,14.20
2019-04-03T09:40:39.485Z,14.30
2019-04-03T09:43:09.527Z,14.30
2019-04-03T09:45:39.416Z,14.30
2019-04-03T09:48:11.649Z,14.30
2019-04-03T09:50:41.255Z,14.30
2019-04-03T09:53:11.560Z,14.30
2019-04-03T09:55:41.654Z,14.30
2019-04-03T09:58:11.663Z,14.30
2019-04-03T10:00:42.823Z,14.30
2019-04-03T10:03:13.442Z,14.30
2019-04-03T10:05:43.369Z,14.30
2019-04-03T10:08:13.671Z,14.30
2019-04-03T10:10:46.469Z,14.30
2019-04-03T10:13:15.629Z,14.30
2019-04-03T10:15:45.811Z,14.30
2019-04-03T10:18:15.939Z,14.40
2019-04-03T10:20:48.786Z,14.40
2019-04-03T10:23:17.836Z,14.50
2019-04-03T10:25:48.028Z,14.50
2019-04-03T10:28:18.039Z,14.50
2019-04-03T10:30:48.489Z,14.50
2019-04-03T10:33:18.528Z,14.50
2019-04-03T10:35:48.564Z,14.60
2019-04-03T10:38:19.015Z,14.60
2019-04-03T10:40:49.193Z,14.60
2019-04-03T10:43:19.315Z,14.60
2019-04-03T10:45:49.451Z,14.60
2019-04-03T10:48:19.285Z,14.60
2019-04-03T10:50:49.295Z,14.70
2019-04-03T10:53:19.958Z,14.80
2019-04-03T10:55:50.624Z,14.90
2019-04-03T10:58:20.680Z,15.00
2019-04-03T11:00:51.141Z,15.10
2019-04-03T11:03:21.282Z,15.30
2019-04-03T11:05:51.320Z,15.40
2019-04-03T11:08:21.012Z,15.60
2019-04-03T11:10:51.152Z,15.70
2019-04-03T11:13:21.329Z,15.80
2019-04-03T11:15:51.485Z,15.90
2019-04-03T11:18:21.838Z,15.90
2019-04-03T11:20:52.123Z,16.10
2019-04-03T11:23:36.517Z,16.20
2019-04-03T11:25:53.805Z,16.40
2019-04-03T11:28:24.018Z,16.50
2019-04-03T11:30:55.923Z,16.60
2019-04-03T11:33:26.211Z,16.70
2019-04-03T11:35:56.448Z,16.80
2019-04-03T11:38:28.736Z,16.80
2019-04-03T11:40:58.121Z,16.80
2019-04-03T11:43:30.823Z,16.90
2019-04-03T11:45:59.747Z,17.00
2019-04-03T11:48:29.910Z,17.20
2019-04-03T11:51:00.017Z,17.30
2019-04-03T11:53:30.651Z,17.30
2019-04-03T11:56:00.956Z,17.40
2019-04-03T11:58:30.953Z,17.40
2019-04-03T12:01:00.987Z,17.40
2019-04-03T12:03:31.093Z,17.20
2019-04-03T12:06:01.365Z,17.20
2019-04-03T12:08:31.617Z,17.30
2019-04-03T12:11:01.887Z,17.50
2019-04-03T12:13:31.807Z,17.60
2019-04-03T12:16:01.929Z,17.70
2019-04-03T12:18:34.105Z,17.80
2019-04-03T12:21:03.473Z,17.80
2019-04-03T12:23:33.591Z,17.80
2019-04-03T12:26:03.855Z,17.90
2019-04-03T12:28:34.108Z,18.20
2019-04-03T12:31:04.341Z,18.40
2019-04-03T12:33:34.478Z,18.60
2019-04-03T12:36:06.507Z,18.60
2019-04-03T12:38:36.391Z,18.50
2019-04-03T12:41:08.124Z,18.50
2019-04-03T12:43:38.070Z,18.40
2019-04-03T12:46:08.381Z,18.20
2019-04-03T12:48:38.261Z,17.90
2019-04-03T12:51:08.088Z,17.70
2019-04-03T12:53:37.832Z,17.60
2019-04-03T12:56:07.603Z,17.70
2019-04-03T12:58:38.515Z,17.70
2019-04-03T13:01:10.790Z,17.70
2019-04-03T13:03:40.400Z,17.70
2019-04-03T13:06:10.948Z,17.60
2019-04-03T13:08:40.847Z,17.40
2019-04-03T13:11:10.976Z,17.40
2019-04-03T13:13:41.286Z,17.30
2019-04-03T13:16:11.751Z,17.20
2019-04-03T13:18:42.033Z,17.50
2019-04-03T13:21:12.224Z,17.70
2019-04-03T13:23:45.084Z,18.00
2019-04-03T13:26:14.332Z,18.20
2019-04-03T13:28:44.595Z,18.40
2019-04-03T13:31:14.958Z,18.40
2019-04-03T13:33:45.908Z,18.60
2019-04-03T13:36:18.240Z,18.70
2019-04-03T13:38:50.142Z,18.90
2019-04-03T13:41:19.190Z,19.30
2019-04-03T13:43:49.176Z,19.80
2019-04-03T13:46:19.300Z,19.80
2019-04-03T13:48:49.123Z,19.90
2019-04-03T13:51:19.121Z,20.30
2019-04-03T13:53:49.035Z,20.90
2019-04-03T13:56:19.319Z,21.50
2019-04-03T13:58:52.642Z,21.70
2019-04-03T14:01:20.916Z,21.80
2019-04-03T14:03:51.469Z,20.90
2019-04-03T14:06:22.114Z,19.90
2019-04-03T14:08:52.019Z,19.20
2019-04-03T14:11:22.137Z,18.30
2019-04-03T14:13:52.217Z,17.70
2019-04-03T14:16:23.480Z,17.60
2019-04-03T14:18:53.441Z,17.10
2019-04-03T14:21:25.277Z,16.80
2019-04-03T14:23:55.478Z,17.00
2019-04-03T14:26:25.570Z,17.40
2019-04-03T14:28:55.838Z,18.00
2019-04-03T14:31:34.294Z,17.80
2019-04-03T14:33:58.488Z,17.60
2019-04-03T14:36:29.344Z,17.50
2019-04-03T14:39:02.373Z,17.50
2019-04-03T14:41:31.386Z,17.40
2019-04-03T14:44:06.890Z,17.30
2019-04-03T14:46:36.170Z,17.20
2019-04-03T14:49:06.741Z,17.20
2019-04-03T14:51:36.936Z,17.30
2019-04-03T14:54:08.434Z,17.30
2019-04-03T14:56:39.103Z,17.10
2019-04-03T14:59:09.238Z,17.30
2019-04-03T15:01:39.629Z,17.70
2019-04-03T15:04:09.807Z,18.30
2019-04-03T15:06:40.229Z,18.20
2019-04-03T15:09:10.651Z,17.50
2019-04-03T15:11:40.740Z,17.00
2019-04-03T15:14:10.702Z,16.50
2019-04-03T15:16:40.803Z,16.10
2019-04-03T15:19:13.102Z,15.60
2019-04-03T15:21:42.423Z,15.20
2019-04-03T15:24:13.023Z,14.70
2019-04-03T15:26:43.199Z,14.30
2019-04-03T15:29:13.413Z,14.00
2019-04-03T15:31:45.821Z,14.30
2019-04-03T15:34:15.407Z,15.20
2019-04-03T15:36:45.508Z,16.30
2019-04-03T15:39:16.821Z,17.20
2019-04-03T15:41:47.423Z,17.30
2019-04-03T15:44:19.818Z,16.90
2019-04-03T15:46:49.618Z,16.90
2019-04-03T15:49:19.716Z,17.40
2019-04-03T15:51:50.242Z,17.60
2019-04-03T15:54:20.393Z,17.60
2019-04-03T15:56:50.265Z,17.30
2019-04-03T15:59:20.267Z,16.40
2019-04-03T16:01:50.341Z,16.30
2019-04-03T16:04:20.736Z,15.50
2019-04-03T16:06:50.711Z,14.70
2019-04-03T16:09:34.049Z,14.20
2019-04-03T16:12:06.237Z,14.00
2019-04-03T16:14:36.713Z,14.00
2019-04-03T16:17:06.781Z,13.80
2019-04-03T16:19:36.783Z,13.60
2019-04-03T16:22:07.010Z,13.50
2019-04-03T16:24:37.191Z,13.30
2019-04-03T16:27:08.430Z,13.10
2019-04-03T16:29:40.034Z,12.90
2019-04-03T16:32:10.671Z,12.80
2019-04-03T16:34:41.754Z,12.80
2019-04-03T16:37:12.865Z,12.80
2019-04-03T16:39:43.519Z,12.80
2019-04-03T16:42:14.147Z,12.80
2019-04-03T16:44:45.729Z,12.70
2019-04-03T16:47:15.863Z,12.60
2019-04-03T16:49:46.024Z,12.50
2019-04-03T16:52:16.448Z,12.50
2019-04-03T16:54:46.554Z,12.60
2019-04-03T16:57:16.440Z,12.70
2019-04-03T16:59:46.584Z,12.70
2019-04-03T17:02:18.815Z,12.70
2019-04-03T17:04:48.170Z,12.80
2019-04-03T17:07:20.624Z,12.80
2019-04-03T17:09:50.129Z,12.80
2019-04-03T17:12:20.255Z,12.80
2019-04-03T17:14:50.184Z,12.80
2019-04-03T17:17:20.862Z,12.80
2019-04-03T17:19:51.770Z,12.70
2019-04-03T17:22:22.354Z,12.70
2019-04-03T17:24:55.724Z,12.70
2019-04-03T17:27:24.900Z,12.60
2019-04-03T17:29:57.280Z,12.60
2019-04-03T17:32:35.632Z,12.60
2019-04-03T17:35:07.766Z,12.50
2019-04-03T17:37:38.426Z,12.50
2019-04-03T17:40:09.950Z,12.40
2019-04-03T17:42:40.239Z,12.40
2019-04-03T17:45:16.262Z,12.40
2019-04-03T17:47:53.580Z,12.30
2019-04-03T17:50:23.840Z,12.20
2019-04-03T17:52:57.350Z,12.10
2019-04-03T17:55:28.530Z,12.10
2019-04-03T17:58:04.090Z,12.00
2019-04-03T18:01:16.326Z,11.90
2019-04-03T18:07:12.990Z,11.90
2019-04-03T18:09:43.107Z,11.80
2019-04-03T18:12:12.836Z,11.70
2019-04-03T18:14:42.490Z,11.70
2019-04-03T18:17:12.461Z,11.50
2019-04-03T18:19:48.095Z,11.50
2019-04-03T18:22:15.165Z,11.50
2019-04-03T18:24:44.902Z,11.50
2019-04-03T18:27:14.554Z,11.40
2019-04-03T18:29:44.866Z,11.40
2019-04-03T18:32:15.384Z,11.20
2019-04-03T18:34:49.498Z,11.10
2019-04-03T18:37:19.329Z,11.10
2019-04-03T18:39:51.617Z,11.00
2019-04-03T18:42:21.291Z,10.90
2019-04-03T18:44:51.256Z,10.80
2019-04-03T18:47:21.926Z,10.80
2019-04-03T18:49:52.077Z,10.80
2019-04-03T18:52:22.170Z,10.90
2019-04-03T18:54:52.235Z,10.90
2019-04-03T18:57:22.466Z,10.80
2019-04-03T18:59:52.511Z,10.70
2019-04-03T19:02:22.914Z,10.50
2019-04-03T19:05:01.910Z,10.40
2019-04-03T19:07:24.720Z,10.40
2019-04-03T19:10:06.475Z,10.40
2019-04-03T19:12:35.374Z,10.40
2019-04-03T19:14:57.659Z,10.40
2019-04-03T19:17:27.638Z,10.40
2019-04-03T19:20:09.776Z,10.30
2019-04-03T19:22:29.435Z,10.30
2019-04-03T19:24:59.374Z,10.30
2019-04-03T19:27:31.068Z,10.30
2019-04-03T19:30:01.095Z,10.30
2019-04-03T19:32:31.233Z,10.40
2019-04-03T19:35:01.339Z,10.30
2019-04-03T19:37:33.350Z,10.30
2019-04-03T19:40:02.898Z,10.30
2019-04-03T19:42:32.809Z,10.30
2019-04-03T19:45:02.941Z,10.30
2019-04-03T19:47:34.995Z,10.20
2019-04-03T19:50:06.029Z,10.20
2019-04-03T19:52:37.390Z,10.10
2019-04-03T19:55:08.727Z,10.10
2019-04-03T19:57:38.875Z,10.10
2019-04-03T20:00:09.487Z,10.00
2019-04-03T20:02:42.645Z,10.10
2019-04-03T20:05:11.273Z,10.00
2019-04-03T20:07:41.265Z,9.90
2019-04-03T20:10:11.918Z,9.90
2019-04-03T20:12:42.138Z,9.90
2019-04-03T20:15:12.326Z,9.90
2019-04-03T20:17:42.253Z,9.90
2019-04-03T20:20:12.605Z,9.90
2019-04-03T20:22:42.775Z,9.90
2019-04-03T20:25:15.141Z,9.90
2019-04-03T20:27:47.294Z,9.80
2019-04-03T20:30:16.510Z,9.80
2019-04-03T20:32:46.851Z,9.70
2019-04-03T20:35:18.739Z,9.60
2019-04-03T20:37:48.454Z,9.60
2019-04-03T20:40:18.332Z,9.60
2019-04-03T20:42:48.623Z,9.60
2019-04-03T20:45:19.158Z,9.70
2019-04-03T20:47:49.803Z,9.70
2019-04-03T20:50:19.989Z,9.60
2019-04-03T20:52:49.951Z,9.60
2019-04-03T20:55:19.876Z,9.60
2019-04-03T20:57:55.812Z,9.60
2019-04-03T21:00:21.737Z,9.60
2019-04-03T21:02:51.631Z,9.60
2019-04-03T21:05:21.786Z,9.60
2019-04-03T21:07:51.792Z,9.50
2019-04-03T21:10:22.078Z,9.50
2019-04-03T21:12:52.148Z,9.50
2019-04-03T21:15:22.127Z,9.50
2019-04-03T21:17:52.273Z,9.60
2019-04-03T21:20:23.741Z,9.50
2019-04-03T21:22:54.256Z,9.50
2019-04-03T21:25:24.352Z,9.60
2019-04-03T21:27:54.816Z,9.60
2019-04-03T21:30:24.795Z,9.50
2019-04-03T21:32:54.949Z,9.40
2019-04-03T21:35:24.980Z,9.30
2019-04-03T21:37:55.237Z,9.20
2019-04-03T21:40:25.136Z,9.30
2019-04-03T21:42:57.626Z,9.30
2019-04-03T21:45:26.865Z,9.30
2019-04-03T21:47:56.981Z,9.40
2019-04-03T21:50:26.888Z,9.30
2019-04-03T21:52:56.890Z,9.30
2019-04-03T21:55:26.917Z,9.30
2019-04-03T21:57:57.251Z,9.30
2019-04-03T22:01:00.755Z,9.30
2019-04-03T22:03:30.875Z,9.30
2019-04-03T22:06:00.969Z,9.30
2019-04-03T22:08:30.990Z,9.20
2019-04-03T22:11:03.900Z,9.20
2019-04-03T22:13:32.856Z,9.30
2019-04-03T22:16:02.768Z,9.40
2019-04-03T22:18:32.926Z,9.30
2019-04-03T22:21:02.932Z,9.30
2019-04-03T22:23:35.570Z,9.30
2019-04-03T22:26:05.218Z,9.30
2019-04-03T22:28:35.145Z,9.40
2019-04-03T22:31:05.232Z,9.40
2019-04-03T22:33:35.157Z,9.30
2019-04-03T22:36:05.347Z,9.40
2019-04-03T22:38:37.159Z,9.30
2019-04-03T22:41:06.869Z,9.30
2019-04-03T22:43:36.724Z,9.30
2019-04-03T22:46:06.744Z,9.30
2019-04-03T22:48:36.899Z,9.30
2019-04-03T22:51:07.449Z,9.30
2019-04-03T22:53:37.540Z,9.30
2019-04-03T22:56:07.462Z,9.20
2019-04-03T22:58:37.590Z,9.20
2019-04-03T23:01:07.977Z,9.20
2019-04-03T23:03:38.263Z,9.10
2019-04-03T23:06:08.015Z,9.10
2019-04-03T23:08:38.193Z,9.10
2019-04-03T23:11:08.465Z,9.10
2019-04-03T23:13:38.484Z,9.10
2019-04-03T23:16:09.637Z,9.00
2019-04-03T23:18:40.391Z,9.10
2019-04-03T23:21:10.780Z,9.10
2019-04-03T23:23:40.804Z,9.10
2019-04-03T23:26:11.167Z,9.10
2019-04-03T23:28:41.470Z,9.10
2019-04-03T23:31:13.048Z,9.10
2019-04-03T23:33:43.449Z,9.20
2019-04-03T23:36:13.442Z,9.10
2019-04-03T23:38:43.657Z,9.10
2019-04-03T23:41:13.605Z,9.10
2019-04-03T23:43:43.927Z,9.20
2019-04-03T23:46:14.710Z,9.20
2019-04-03T23:48:48.661Z,9.20
2019-04-03T23:51:23.024Z,9.20
2019-04-03T23:53:48.913Z,9.20
2019-04-03T23:56:19.107Z,9.10
2019-04-03T23:58:49.125Z,9.10
